sensor_id;sensor_type;location;lat;lon;timestamp;temperature;humidity
7666;DHT22;3875;46.562;4.898;2022-08-21T00:00:40;20.80;69.70
7666;DHT22;3875;46.562;4.898;2022-08-21T00:03:08;20.80;69.70
7666;DHT22;3875;46.562;4.898;2022-08-21T00:05:40;20.80;69.80
7666;DHT22;3875;46.562;4.898;2022-08-21T00:08:06;20.80;70.10
7666;DHT22;3875;46.562;4.898;2022-08-21T00:10:32;20.80;70.20
7666;DHT22;3875;46.562;4.898;2022-08-21T00:12:59;20.60;70.20
7666;DHT22;3875;46.562;4.898;2022-08-21T00:15:28;20.60;70.30
7666;DHT22;3875;46.562;4.898;2022-08-21T00:17:55;20.60;70.50
7666;DHT22;3875;46.562;4.898;2022-08-21T00:20:23;20.60;70.50
7666;DHT22;3875;46.562;4.898;2022-08-21T00:22:49;20.50;70.40
7666;DHT22;3875;46.562;4.898;2022-08-21T00:25:16;20.50;70.50
7666;DHT22;3875;46.562;4.898;2022-08-21T00:27:43;20.50;70.30
7666;DHT22;3875;46.562;4.898;2022-08-21T00:30:10;20.40;70.40
7666;DHT22;3875;46.562;4.898;2022-08-21T00:32:38;20.30;70.00
7666;DHT22;3875;46.562;4.898;2022-08-21T00:35:06;20.20;70.40
7666;DHT22;3875;46.562;4.898;2022-08-21T00:37:32;20.10;70.60
7666;DHT22;3875;46.562;4.898;2022-08-21T00:39:58;20.00;70.50
7666;DHT22;3875;46.562;4.898;2022-08-21T00:42:24;19.90;70.70
7666;DHT22;3875;46.562;4.898;2022-08-21T00:44:50;19.90;70.80
7666;DHT22;3875;46.562;4.898;2022-08-21T00:47:17;19.90;70.70
7666;DHT22;3875;46.562;4.898;2022-08-21T00:49:43;19.80;70.90
7666;DHT22;3875;46.562;4.898;2022-08-21T00:52:14;19.70;71.00
7666;DHT22;3875;46.562;4.898;2022-08-21T00:54:41;19.60;71.10
7666;DHT22;3875;46.562;4.898;2022-08-21T00:57:13;19.60;71.00
7666;DHT22;3875;46.562;4.898;2022-08-21T00:59:44;19.70;71.00
7666;DHT22;3875;46.562;4.898;2022-08-21T01:02:11;19.80;70.80
7666;DHT22;3875;46.562;4.898;2022-08-21T01:04:37;19.70;70.50
7666;DHT22;3875;46.562;4.898;2022-08-21T01:07:03;19.60;70.70
7666;DHT22;3875;46.562;4.898;2022-08-21T01:09:29;19.50;71.00
7666;DHT22;3875;46.562;4.898;2022-08-21T01:11:55;19.50;71.30
7666;DHT22;3875;46.562;4.898;2022-08-21T01:14:21;19.30;71.50
7666;DHT22;3875;46.562;4.898;2022-08-21T01:16:50;19.10;71.80
7666;DHT22;3875;46.562;4.898;2022-08-21T01:19:18;19.10;72.10
7666;DHT22;3875;46.562;4.898;2022-08-21T01:21:44;19.20;72.10
7666;DHT22;3875;46.562;4.898;2022-08-21T01:24:11;19.20;72.10
7666;DHT22;3875;46.562;4.898;2022-08-21T01:26:37;19.20;72.20
7666;DHT22;3875;46.562;4.898;2022-08-21T01:31:56;19.30;72.20
7666;DHT22;3875;46.562;4.898;2022-08-21T01:34:22;19.30;72.00
7666;DHT22;3875;46.562;4.898;2022-08-21T01:36:47;19.20;72.30
7666;DHT22;3875;46.562;4.898;2022-08-21T01:39:14;19.20;72.60
7666;DHT22;3875;46.562;4.898;2022-08-21T01:41:40;19.10;72.40
7666;DHT22;3875;46.562;4.898;2022-08-21T01:44:06;19.10;72.30
7666;DHT22;3875;46.562;4.898;2022-08-21T01:46:32;19.10;72.40
7666;DHT22;3875;46.562;4.898;2022-08-21T01:48:58;19.00;72.40
7666;DHT22;3875;46.562;4.898;2022-08-21T01:51:24;19.00;72.70
7666;DHT22;3875;46.562;4.898;2022-08-21T01:53:50;19.00;72.70
7666;DHT22;3875;46.562;4.898;2022-08-21T01:56:17;18.90;72.80
7666;DHT22;3875;46.562;4.898;2022-08-21T01:58:47;18.80;72.60
7666;DHT22;3875;46.562;4.898;2022-08-21T02:01:14;18.80;72.80
7666;DHT22;3875;46.562;4.898;2022-08-21T02:03:39;18.80;73.00
7666;DHT22;3875;46.562;4.898;2022-08-21T02:06:10;18.80;72.90
7666;DHT22;3875;46.562;4.898;2022-08-21T02:08:37;18.80;72.60
7666;DHT22;3875;46.562;4.898;2022-08-21T02:11:02;18.80;72.70
7666;DHT22;3875;46.562;4.898;2022-08-21T02:13:28;18.70;72.40
7666;DHT22;3875;46.562;4.898;2022-08-21T02:15:54;18.70;72.80
7666;DHT22;3875;46.562;4.898;2022-08-21T02:18:19;18.70;72.90
7666;DHT22;3875;46.562;4.898;2022-08-21T02:20:48;18.70;73.00
7666;DHT22;3875;46.562;4.898;2022-08-21T02:23:14;18.60;72.90
7666;DHT22;3875;46.562;4.898;2022-08-21T02:25:41;18.60;73.00
7666;DHT22;3875;46.562;4.898;2022-08-21T02:28:10;18.60;73.10
7666;DHT22;3875;46.562;4.898;2022-08-21T02:30:40;18.60;73.00
7666;DHT22;3875;46.562;4.898;2022-08-21T02:33:07;18.50;73.20
7666;DHT22;3875;46.562;4.898;2022-08-21T02:35:35;18.50;73.20
7666;DHT22;3875;46.562;4.898;2022-08-21T02:38:04;18.40;73.30
7666;DHT22;3875;46.562;4.898;2022-08-21T02:40:33;18.40;73.40
7666;DHT22;3875;46.562;4.898;2022-08-21T02:43:00;18.30;73.80
7666;DHT22;3875;46.562;4.898;2022-08-21T02:45:27;18.30;74.10
7666;DHT22;3875;46.562;4.898;2022-08-21T02:48:06;18.20;74.00
7666;DHT22;3875;46.562;4.898;2022-08-21T02:50:37;18.20;74.10
7666;DHT22;3875;46.562;4.898;2022-08-21T02:53:04;18.20;73.90
7666;DHT22;3875;46.562;4.898;2022-08-21T02:55:33;18.20;73.70
7666;DHT22;3875;46.562;4.898;2022-08-21T02:57:59;18.20;73.70
7666;DHT22;3875;46.562;4.898;2022-08-21T03:00:28;18.10;74.10
7666;DHT22;3875;46.562;4.898;2022-08-21T03:02:54;18.10;74.30
7666;DHT22;3875;46.562;4.898;2022-08-21T03:05:22;18.10;74.50
7666;DHT22;3875;46.562;4.898;2022-08-21T03:07:48;18.00;74.30
7666;DHT22;3875;46.562;4.898;2022-08-21T03:10:14;18.00;74.60
7666;DHT22;3875;46.562;4.898;2022-08-21T03:12:40;17.90;74.50
7666;DHT22;3875;46.562;4.898;2022-08-21T03:15:09;17.80;74.50
7666;DHT22;3875;46.562;4.898;2022-08-21T03:17:35;17.80;74.80
7666;DHT22;3875;46.562;4.898;2022-08-21T03:20:03;17.80;74.80
7666;DHT22;3875;46.562;4.898;2022-08-21T03:22:29;17.80;74.70
7666;DHT22;3875;46.562;4.898;2022-08-21T03:24:55;17.80;74.50
7666;DHT22;3875;46.562;4.898;2022-08-21T03:27:22;17.80;74.70
7666;DHT22;3875;46.562;4.898;2022-08-21T03:29:52;17.70;75.00
7666;DHT22;3875;46.562;4.898;2022-08-21T03:32:18;17.70;75.00
7666;DHT22;3875;46.562;4.898;2022-08-21T03:34:45;17.70;74.90
7666;DHT22;3875;46.562;4.898;2022-08-21T03:37:12;17.60;75.30
7666;DHT22;3875;46.562;4.898;2022-08-21T03:39:37;17.60;75.20
7666;DHT22;3875;46.562;4.898;2022-08-21T03:42:03;17.60;75.30
7666;DHT22;3875;46.562;4.898;2022-08-21T03:44:30;17.60;75.30
7666;DHT22;3875;46.562;4.898;2022-08-21T03:46:57;17.60;75.10
7666;DHT22;3875;46.562;4.898;2022-08-21T03:49:24;17.60;75.10
7666;DHT22;3875;46.562;4.898;2022-08-21T03:51:50;17.50;75.20
7666;DHT22;3875;46.562;4.898;2022-08-21T03:54:16;17.50;75.20
7666;DHT22;3875;46.562;4.898;2022-08-21T03:56:41;17.40;75.00
7666;DHT22;3875;46.562;4.898;2022-08-21T03:59:07;17.40;75.20
7666;DHT22;3875;46.562;4.898;2022-08-21T04:01:33;17.40;75.70
7666;DHT22;3875;46.562;4.898;2022-08-21T04:03:59;17.40;75.70
7666;DHT22;3875;46.562;4.898;2022-08-21T04:06:25;17.40;75.40
7666;DHT22;3875;46.562;4.898;2022-08-21T04:08:52;17.40;75.50
7666;DHT22;3875;46.562;4.898;2022-08-21T04:11:19;17.30;75.40
7666;DHT22;3875;46.562;4.898;2022-08-21T04:13:45;17.40;75.40
7666;DHT22;3875;46.562;4.898;2022-08-21T04:16:12;17.50;75.10
7666;DHT22;3875;46.562;4.898;2022-08-21T04:18:37;17.50;75.00
7666;DHT22;3875;46.562;4.898;2022-08-21T04:21:03;17.50;75.00
7666;DHT22;3875;46.562;4.898;2022-08-21T04:23:29;17.50;74.90
7666;DHT22;3875;46.562;4.898;2022-08-21T04:25:56;17.50;74.90
7666;DHT22;3875;46.562;4.898;2022-08-21T04:28:23;17.40;75.00
7666;DHT22;3875;46.562;4.898;2022-08-21T04:30:51;17.40;75.40
7666;DHT22;3875;46.562;4.898;2022-08-21T04:33:17;17.40;75.30
7666;DHT22;3875;46.562;4.898;2022-08-21T04:35:43;17.40;75.40
7666;DHT22;3875;46.562;4.898;2022-08-21T04:38:09;17.40;75.50
7666;DHT22;3875;46.562;4.898;2022-08-21T04:40:35;17.30;75.70
7666;DHT22;3875;46.562;4.898;2022-08-21T04:43:06;17.30;75.60
7666;DHT22;3875;46.562;4.898;2022-08-21T04:45:35;17.30;75.90
7666;DHT22;3875;46.562;4.898;2022-08-21T04:48:04;17.30;75.90
7666;DHT22;3875;46.562;4.898;2022-08-21T04:50:43;17.20;75.80
7666;DHT22;3875;46.562;4.898;2022-08-21T04:53:37;17.20;75.90
7666;DHT22;3875;46.562;4.898;2022-08-21T04:56:15;17.10;76.50
7666;DHT22;3875;46.562;4.898;2022-08-21T04:58:43;17.10;76.90
7666;DHT22;3875;46.562;4.898;2022-08-21T05:01:15;17.10;76.90
7666;DHT22;3875;46.562;4.898;2022-08-21T05:03:42;17.10;77.20
7666;DHT22;3875;46.562;4.898;2022-08-21T05:06:10;17.10;77.40
7666;DHT22;3875;46.562;4.898;2022-08-21T05:08:37;17.10;77.80
7666;DHT22;3875;46.562;4.898;2022-08-21T05:11:04;17.20;78.10
7666;DHT22;3875;46.562;4.898;2022-08-21T05:13:30;17.20;77.50
7666;DHT22;3875;46.562;4.898;2022-08-21T05:15:56;17.30;77.90
7666;DHT22;3875;46.562;4.898;2022-08-21T05:18:22;17.30;77.90
7666;DHT22;3875;46.562;4.898;2022-08-21T05:20:47;17.30;78.00
7666;DHT22;3875;46.562;4.898;2022-08-21T05:23:14;17.40;78.10
7666;DHT22;3875;46.562;4.898;2022-08-21T05:25:41;17.50;78.00
7666;DHT22;3875;46.562;4.898;2022-08-21T05:28:07;17.50;77.90
7666;DHT22;3875;46.562;4.898;2022-08-21T05:30:34;17.60;78.10
7666;DHT22;3875;46.562;4.898;2022-08-21T05:33:01;17.70;78.10
7666;DHT22;3875;46.562;4.898;2022-08-21T05:35:28;17.70;78.00
7666;DHT22;3875;46.562;4.898;2022-08-21T05:37:55;17.70;78.60
7666;DHT22;3875;46.562;4.898;2022-08-21T05:40:21;17.60;78.60
7666;DHT22;3875;46.562;4.898;2022-08-21T05:42:47;17.60;78.70
7666;DHT22;3875;46.562;4.898;2022-08-21T05:45:13;17.60;78.80
7666;DHT22;3875;46.562;4.898;2022-08-21T05:47:39;17.70;78.80
7666;DHT22;3875;46.562;4.898;2022-08-21T05:50:05;17.70;78.90
7666;DHT22;3875;46.562;4.898;2022-08-21T05:52:31;17.70;79.10
7666;DHT22;3875;46.562;4.898;2022-08-21T05:54:57;17.70;79.40
7666;DHT22;3875;46.562;4.898;2022-08-21T05:57:22;17.70;80.00
7666;DHT22;3875;46.562;4.898;2022-08-21T05:59:49;17.70;80.20
7666;DHT22;3875;46.562;4.898;2022-08-21T06:02:17;17.70;80.40
7666;DHT22;3875;46.562;4.898;2022-08-21T06:04:43;17.80;80.20
7666;DHT22;3875;46.562;4.898;2022-08-21T06:07:09;17.90;80.00
7666;DHT22;3875;46.562;4.898;2022-08-21T06:09:35;18.00;80.00
7666;DHT22;3875;46.562;4.898;2022-08-21T06:12:05;18.10;79.50
7666;DHT22;3875;46.562;4.898;2022-08-21T06:14:31;18.20;79.50
7666;DHT22;3875;46.562;4.898;2022-08-21T06:17:09;18.30;79.20
7666;DHT22;3875;46.562;4.898;2022-08-21T06:19:36;18.50;78.40
7666;DHT22;3875;46.562;4.898;2022-08-21T06:22:03;18.80;78.00
7666;DHT22;3875;46.562;4.898;2022-08-21T06:24:29;19.00;77.80
7666;DHT22;3875;46.562;4.898;2022-08-21T06:26:56;19.20;77.40
7666;DHT22;3875;46.562;4.898;2022-08-21T06:29:22;19.50;76.80
7666;DHT22;3875;46.562;4.898;2022-08-21T06:31:50;19.60;76.30
7666;DHT22;3875;46.562;4.898;2022-08-21T06:34:17;19.80;76.20
7666;DHT22;3875;46.562;4.898;2022-08-21T06:36:43;20.00;75.90
7666;DHT22;3875;46.562;4.898;2022-08-21T06:39:09;20.10;75.50
7666;DHT22;3875;46.562;4.898;2022-08-21T06:41:35;20.20;75.40
7666;DHT22;3875;46.562;4.898;2022-08-21T06:44:01;20.30;75.30
7666;DHT22;3875;46.562;4.898;2022-08-21T06:46:28;20.40;74.80
7666;DHT22;3875;46.562;4.898;2022-08-21T06:48:54;20.50;74.50
7666;DHT22;3875;46.562;4.898;2022-08-21T06:51:20;20.60;74.10
7666;DHT22;3875;46.562;4.898;2022-08-21T06:53:46;20.80;73.70
7666;DHT22;3875;46.562;4.898;2022-08-21T06:56:12;20.90;72.10
7666;DHT22;3875;46.562;4.898;2022-08-21T06:58:38;20.90;72.50
7666;DHT22;3875;46.562;4.898;2022-08-21T07:01:04;21.00;70.70
7666;DHT22;3875;46.562;4.898;2022-08-21T07:03:40;21.00;70.70
7666;DHT22;3875;46.562;4.898;2022-08-21T07:06:07;21.20;71.50
7666;DHT22;3875;46.562;4.898;2022-08-21T07:08:34;21.40;70.30
7666;DHT22;3875;46.562;4.898;2022-08-21T07:11:03;21.50;70.10
7666;DHT22;3875;46.562;4.898;2022-08-21T07:13:31;21.70;70.10
7666;DHT22;3875;46.562;4.898;2022-08-21T07:15:56;21.80;70.20
7666;DHT22;3875;46.562;4.898;2022-08-21T07:18:22;22.00;70.30
7666;DHT22;3875;46.562;4.898;2022-08-21T07:20:48;22.20;69.50
7666;DHT22;3875;46.562;4.898;2022-08-21T07:23:26;22.30;68.80
7666;DHT22;3875;46.562;4.898;2022-08-21T07:25:54;22.40;67.30
7666;DHT22;3875;46.562;4.898;2022-08-21T07:28:19;22.40;66.50
7666;DHT22;3875;46.562;4.898;2022-08-21T07:30:46;22.40;67.00
7666;DHT22;3875;46.562;4.898;2022-08-21T07:33:16;22.40;66.80
7666;DHT22;3875;46.562;4.898;2022-08-21T07:35:41;22.30;67.50
7666;DHT22;3875;46.562;4.898;2022-08-21T07:38:07;22.30;67.40
7666;DHT22;3875;46.562;4.898;2022-08-21T07:40:33;22.40;67.50
7666;DHT22;3875;46.562;4.898;2022-08-21T07:42:59;22.50;67.50
7666;DHT22;3875;46.562;4.898;2022-08-21T07:45:24;22.70;66.90
7666;DHT22;3875;46.562;4.898;2022-08-21T07:47:51;22.90;66.50
7666;DHT22;3875;46.562;4.898;2022-08-21T07:50:17;23.10;66.00
7666;DHT22;3875;46.562;4.898;2022-08-21T07:52:44;23.40;65.40
7666;DHT22;3875;46.562;4.898;2022-08-21T07:55:12;23.60;64.80
7666;DHT22;3875;46.562;4.898;2022-08-21T07:57:38;23.70;64.60
7666;DHT22;3875;46.562;4.898;2022-08-21T08:00:10;23.70;64.40
7666;DHT22;3875;46.562;4.898;2022-08-21T08:02:36;23.80;64.20
7666;DHT22;3875;46.562;4.898;2022-08-21T08:05:04;23.90;63.70
7666;DHT22;3875;46.562;4.898;2022-08-21T08:07:30;24.00;64.50
7666;DHT22;3875;46.562;4.898;2022-08-21T08:09:55;24.20;63.50
7666;DHT22;3875;46.562;4.898;2022-08-21T08:12:21;24.10;64.00
7666;DHT22;3875;46.562;4.898;2022-08-21T08:14:48;24.20;63.20
7666;DHT22;3875;46.562;4.898;2022-08-21T08:17:13;24.20;62.80
7666;DHT22;3875;46.562;4.898;2022-08-21T08:19:39;24.30;63.70
7666;DHT22;3875;46.562;4.898;2022-08-21T08:22:15;24.50;63.70
7666;DHT22;3875;46.562;4.898;2022-08-21T08:24:41;24.70;63.00
7666;DHT22;3875;46.562;4.898;2022-08-21T08:27:07;24.80;63.10
7666;DHT22;3875;46.562;4.898;2022-08-21T08:29:33;25.00;62.50
7666;DHT22;3875;46.562;4.898;2022-08-21T08:31:59;25.30;62.40
7666;DHT22;3875;46.562;4.898;2022-08-21T08:34:25;25.50;61.10
7666;DHT22;3875;46.562;4.898;2022-08-21T08:36:50;25.60;61.00
7666;DHT22;3875;46.562;4.898;2022-08-21T08:39:16;25.60;61.00
7666;DHT22;3875;46.562;4.898;2022-08-21T08:41:45;25.70;60.10
7666;DHT22;3875;46.562;4.898;2022-08-21T08:44:12;25.60;60.10
7666;DHT22;3875;46.562;4.898;2022-08-21T08:46:44;25.80;60.40
7666;DHT22;3875;46.562;4.898;2022-08-21T08:55:30;26.10;60.00
7666;DHT22;3875;46.562;4.898;2022-08-21T08:57:30;26.10;60.10
7666;DHT22;3875;46.562;4.898;2022-08-21T09:00:04;26.30;60.60
7666;DHT22;3875;46.562;4.898;2022-08-21T09:02:30;26.40;59.10
7666;DHT22;3875;46.562;4.898;2022-08-21T09:04:59;26.50;59.20
7666;DHT22;3875;46.562;4.898;2022-08-21T09:10:17;26.70;58.60
7666;DHT22;3875;46.562;4.898;2022-08-21T09:13:19;26.90;58.00
7666;DHT22;3875;46.562;4.898;2022-08-21T09:26:36;27.50;56.00
7666;DHT22;3875;46.562;4.898;2022-08-21T09:29:06;27.60;57.00
7666;DHT22;3875;46.562;4.898;2022-08-21T09:31:35;27.70;55.10
7666;DHT22;3875;46.562;4.898;2022-08-21T09:34:06;27.80;55.80
7666;DHT22;3875;46.562;4.898;2022-08-21T09:36:43;28.00;55.20
7666;DHT22;3875;46.562;4.898;2022-08-21T09:39:13;28.10;54.00
7666;DHT22;3875;46.562;4.898;2022-08-21T09:41:39;28.00;53.10
7666;DHT22;3875;46.562;4.898;2022-08-21T09:44:07;28.10;53.40
7666;DHT22;3875;46.562;4.898;2022-08-21T09:46:33;28.40;52.00
7666;DHT22;3875;46.562;4.898;2022-08-21T09:49:02;28.40;53.00
7666;DHT22;3875;46.562;4.898;2022-08-21T09:51:35;28.80;53.20
7666;DHT22;3875;46.562;4.898;2022-08-21T09:59:36;29.10;50.70
7666;DHT22;3875;46.562;4.898;2022-08-21T10:04:50;29.20;51.10
7666;DHT22;3875;46.562;4.898;2022-08-21T10:07:20;29.50;50.50
7666;DHT22;3875;46.562;4.898;2022-08-21T10:09:57;29.60;50.20
7666;DHT22;3875;46.562;4.898;2022-08-21T10:13:12;29.60;48.90
7666;DHT22;3875;46.562;4.898;2022-08-21T10:19:00;29.60;49.90
7666;DHT22;3875;46.562;4.898;2022-08-21T10:21:26;29.80;49.20
7666;DHT22;3875;46.562;4.898;2022-08-21T10:24:19;30.00;49.70
7666;DHT22;3875;46.562;4.898;2022-08-21T10:30:04;29.90;48.80
7666;DHT22;3875;46.562;4.898;2022-08-21T10:32:58;30.00;49.20
7666;DHT22;3875;46.562;4.898;2022-08-21T10:35:29;30.30;48.80
7666;DHT22;3875;46.562;4.898;2022-08-21T10:38:17;30.30;48.90
7666;DHT22;3875;46.562;4.898;2022-08-21T10:48:49;29.80;47.00
7666;DHT22;3875;46.562;4.898;2022-08-21T10:51:42;29.60;49.30
7666;DHT22;3875;46.562;4.898;2022-08-21T10:54:18;29.90;47.20
7666;DHT22;3875;46.562;4.898;2022-08-21T10:56:47;29.80;48.30
7666;DHT22;3875;46.562;4.898;2022-08-21T10:59:28;29.80;48.20
7666;DHT22;3875;46.562;4.898;2022-08-21T11:02:01;30.10;47.00
7666;DHT22;3875;46.562;4.898;2022-08-21T11:05:00;30.30;46.00
7666;DHT22;3875;46.562;4.898;2022-08-21T11:07:51;30.20;45.10
7666;DHT22;3875;46.562;4.898;2022-08-21T11:10:24;30.00;45.90
7666;DHT22;3875;46.562;4.898;2022-08-21T11:13:17;30.10;46.10
7666;DHT22;3875;46.562;4.898;2022-08-21T11:18:32;30.60;44.70
7666;DHT22;3875;46.562;4.898;2022-08-21T11:21:20;30.30;45.40
7666;DHT22;3875;46.562;4.898;2022-08-21T11:23:56;30.40;45.90
7666;DHT22;3875;46.562;4.898;2022-08-21T11:26:43;30.70;45.40
7666;DHT22;3875;46.562;4.898;2022-08-21T11:29:17;31.00;44.40
7666;DHT22;3875;46.562;4.898;2022-08-21T11:32:07;31.10;43.00
7666;DHT22;3875;46.562;4.898;2022-08-21T11:34:39;30.80;42.40
7666;DHT22;3875;46.562;4.898;2022-08-21T11:40:01;31.00;44.30
7666;DHT22;3875;46.562;4.898;2022-08-21T11:42:46;31.00;43.70
7666;DHT22;3875;46.562;4.898;2022-08-21T11:45:44;30.80;43.40
7666;DHT22;3875;46.562;4.898;2022-08-21T11:48:17;30.80;44.10
7666;DHT22;3875;46.562;4.898;2022-08-21T11:50:49;31.30;44.10
7666;DHT22;3875;46.562;4.898;2022-08-21T11:53:53;31.60;42.80
7666;DHT22;3875;46.562;4.898;2022-08-21T11:56:51;31.50;42.20
7666;DHT22;3875;46.562;4.898;2022-08-21T11:59:32;31.40;43.00
7666;DHT22;3875;46.562;4.898;2022-08-21T12:02:00;31.40;44.10
7666;DHT22;3875;46.562;4.898;2022-08-21T12:04:32;31.50;43.00
7666;DHT22;3875;46.562;4.898;2022-08-21T12:07:28;31.50;42.50
7666;DHT22;3875;46.562;4.898;2022-08-21T12:09:56;31.30;43.20
7666;DHT22;3875;46.562;4.898;2022-08-21T12:12:30;31.40;43.60
7666;DHT22;3875;46.562;4.898;2022-08-21T12:18:04;31.90;42.20
7666;DHT22;3875;46.562;4.898;2022-08-21T12:20:38;31.80;42.00
7666;DHT22;3875;46.562;4.898;2022-08-21T12:23:16;32.40;43.20
7666;DHT22;3875;46.562;4.898;2022-08-21T12:25:44;32.00;41.40
7666;DHT22;3875;46.562;4.898;2022-08-21T12:28:15;31.40;42.80
7666;DHT22;3875;46.562;4.898;2022-08-21T12:30:47;31.10;43.10
7666;DHT22;3875;46.562;4.898;2022-08-21T12:33:29;30.90;44.10
7666;DHT22;3875;46.562;4.898;2022-08-21T12:36:11;30.60;43.20
7666;DHT22;3875;46.562;4.898;2022-08-21T12:38:47;30.40;44.50
7666;DHT22;3875;46.562;4.898;2022-08-21T12:41:21;30.30;44.20
7666;DHT22;3875;46.562;4.898;2022-08-21T12:44:03;30.10;43.80
7666;DHT22;3875;46.562;4.898;2022-08-21T12:46:42;29.80;45.00
7666;DHT22;3875;46.562;4.898;2022-08-21T12:49:36;29.80;44.70
7666;DHT22;3875;46.562;4.898;2022-08-21T12:52:14;29.80;44.70
7666;DHT22;3875;46.562;4.898;2022-08-21T12:54:43;29.70;45.40
7666;DHT22;3875;46.562;4.898;2022-08-21T12:57:22;29.80;46.00
7666;DHT22;3875;46.562;4.898;2022-08-21T12:59:55;29.70;45.60
7666;DHT22;3875;46.562;4.898;2022-08-21T13:02:25;29.50;44.90
7666;DHT22;3875;46.562;4.898;2022-08-21T13:04:52;29.30;45.80
7666;DHT22;3875;46.562;4.898;2022-08-21T13:07:31;29.20;45.90
7666;DHT22;3875;46.562;4.898;2022-08-21T13:10:06;29.30;45.90
7666;DHT22;3875;46.562;4.898;2022-08-21T13:12:38;29.50;46.70
7666;DHT22;3875;46.562;4.898;2022-08-21T13:15:05;29.70;45.70
7666;DHT22;3875;46.562;4.898;2022-08-21T13:17:34;29.90;45.70
7666;DHT22;3875;46.562;4.898;2022-08-21T13:20:08;30.40;45.40
7666;DHT22;3875;46.562;4.898;2022-08-21T13:22:41;30.90;44.80
7666;DHT22;3875;46.562;4.898;2022-08-21T13:25:16;31.40;44.70
7666;DHT22;3875;46.562;4.898;2022-08-21T13:27:45;31.50;44.30
7666;DHT22;3875;46.562;4.898;2022-08-21T13:30:21;31.70;43.90
7666;DHT22;3875;46.562;4.898;2022-08-21T13:32:54;31.70;43.00
7666;DHT22;3875;46.562;4.898;2022-08-21T13:35:25;31.60;43.80
7666;DHT22;3875;46.562;4.898;2022-08-21T13:37:51;31.40;44.70
7666;DHT22;3875;46.562;4.898;2022-08-21T13:40:30;31.40;43.90
7666;DHT22;3875;46.562;4.898;2022-08-21T13:42:57;31.30;44.10
7666;DHT22;3875;46.562;4.898;2022-08-21T13:45:32;31.10;44.40
7666;DHT22;3875;46.562;4.898;2022-08-21T13:48:00;30.90;44.80
7666;DHT22;3875;46.562;4.898;2022-08-21T13:50:26;30.60;44.90
7666;DHT22;3875;46.562;4.898;2022-08-21T13:55:25;30.00;45.70
7666;DHT22;3875;46.562;4.898;2022-08-21T13:58:01;30.00;46.20
7666;DHT22;3875;46.562;4.898;2022-08-21T14:00:29;29.90;46.60
7666;DHT22;3875;46.562;4.898;2022-08-21T14:03:04;29.90;46.70
7666;DHT22;3875;46.562;4.898;2022-08-21T14:05:33;29.80;46.40
7666;DHT22;3875;46.562;4.898;2022-08-21T14:08:14;29.70;47.00
7666;DHT22;3875;46.562;4.898;2022-08-21T14:10:48;29.60;47.20
7666;DHT22;3875;46.562;4.898;2022-08-21T14:16:00;29.50;47.30
7666;DHT22;3875;46.562;4.898;2022-08-21T14:18:27;29.50;48.00
7666;DHT22;3875;46.562;4.898;2022-08-21T14:21:09;29.60;47.80
7666;DHT22;3875;46.562;4.898;2022-08-21T14:23:35;29.60;46.90
7666;DHT22;3875;46.562;4.898;2022-08-21T14:26:04;29.40;46.50
7666;DHT22;3875;46.562;4.898;2022-08-21T14:28:34;29.20;46.60
7666;DHT22;3875;46.562;4.898;2022-08-21T14:31:21;29.00;46.80
7666;DHT22;3875;46.562;4.898;2022-08-21T14:33:48;29.20;47.60
7666;DHT22;3875;46.562;4.898;2022-08-21T14:36:14;29.20;47.30
7666;DHT22;3875;46.562;4.898;2022-08-21T14:38:40;29.20;46.80
7666;DHT22;3875;46.562;4.898;2022-08-21T14:41:18;29.20;47.20
7666;DHT22;3875;46.562;4.898;2022-08-21T14:43:46;29.30;47.20
7666;DHT22;3875;46.562;4.898;2022-08-21T14:46:17;29.30;47.60
7666;DHT22;3875;46.562;4.898;2022-08-21T14:48:45;29.60;47.00
7666;DHT22;3875;46.562;4.898;2022-08-21T14:51:12;29.80;46.90
7666;DHT22;3875;46.562;4.898;2022-08-21T14:53:39;30.00;46.90
7666;DHT22;3875;46.562;4.898;2022-08-21T14:56:05;30.10;46.60
7666;DHT22;3875;46.562;4.898;2022-08-21T14:58:38;30.10;46.30
7666;DHT22;3875;46.562;4.898;2022-08-21T15:01:06;30.00;46.30
7666;DHT22;3875;46.562;4.898;2022-08-21T15:03:33;30.00;46.40
7666;DHT22;3875;46.562;4.898;2022-08-21T15:06:00;30.00;46.70
7666;DHT22;3875;46.562;4.898;2022-08-21T15:08:26;29.80;46.30
7666;DHT22;3875;46.562;4.898;2022-08-21T15:10:52;29.60;46.60
7666;DHT22;3875;46.562;4.898;2022-08-21T15:13:19;29.50;46.30
7666;DHT22;3875;46.562;4.898;2022-08-21T15:15:47;29.50;47.10
7666;DHT22;3875;46.562;4.898;2022-08-21T15:18:14;29.50;46.90
7666;DHT22;3875;46.562;4.898;2022-08-21T15:20:39;29.70;46.70
7666;DHT22;3875;46.562;4.898;2022-08-21T15:23:06;29.80;45.70
7666;DHT22;3875;46.562;4.898;2022-08-21T15:25:33;29.70;46.20
7666;DHT22;3875;46.562;4.898;2022-08-21T15:27:59;29.60;46.30
7666;DHT22;3875;46.562;4.898;2022-08-21T15:30:26;29.70;46.40
7666;DHT22;3875;46.562;4.898;2022-08-21T15:32:52;29.70;46.80
7666;DHT22;3875;46.562;4.898;2022-08-21T15:35:18;29.90;46.80
7666;DHT22;3875;46.562;4.898;2022-08-21T15:37:44;30.20;46.00
7666;DHT22;3875;46.562;4.898;2022-08-21T15:40:10;30.30;46.10
7666;DHT22;3875;46.562;4.898;2022-08-21T15:42:40;30.40;46.40
7666;DHT22;3875;46.562;4.898;2022-08-21T15:45:07;30.50;46.00
7666;DHT22;3875;46.562;4.898;2022-08-21T15:47:35;30.50;45.70
7666;DHT22;3875;46.562;4.898;2022-08-21T15:50:03;30.50;45.90
7666;DHT22;3875;46.562;4.898;2022-08-21T15:52:30;30.20;45.90
7666;DHT22;3875;46.562;4.898;2022-08-21T15:54:55;30.00;46.50
7666;DHT22;3875;46.562;4.898;2022-08-21T15:57:22;30.00;47.10
7666;DHT22;3875;46.562;4.898;2022-08-21T15:59:52;29.90;46.40
7666;DHT22;3875;46.562;4.898;2022-08-21T16:02:24;30.00;46.60
7666;DHT22;3875;46.562;4.898;2022-08-21T16:04:51;30.10;46.80
7666;DHT22;3875;46.562;4.898;2022-08-21T16:07:17;30.30;46.40
7666;DHT22;3875;46.562;4.898;2022-08-21T16:09:45;30.30;46.60
7666;DHT22;3875;46.562;4.898;2022-08-21T16:12:21;30.50;46.40
7666;DHT22;3875;46.562;4.898;2022-08-21T16:14:47;30.70;45.30
7666;DHT22;3875;46.562;4.898;2022-08-21T16:17:15;30.70;46.00
7666;DHT22;3875;46.562;4.898;2022-08-21T16:19:41;30.70;45.80
7666;DHT22;3875;46.562;4.898;2022-08-21T16:22:07;30.80;45.70
7666;DHT22;3875;46.562;4.898;2022-08-21T16:24:33;30.70;45.50
7666;DHT22;3875;46.562;4.898;2022-08-21T16:26:59;30.70;45.90
7666;DHT22;3875;46.562;4.898;2022-08-21T16:29:29;30.90;45.50
7666;DHT22;3875;46.562;4.898;2022-08-21T16:31:56;30.80;46.10
7666;DHT22;3875;46.562;4.898;2022-08-21T16:34:22;30.70;46.70
7666;DHT22;3875;46.562;4.898;2022-08-21T16:36:48;30.40;46.40
7666;DHT22;3875;46.562;4.898;2022-08-21T16:39:13;30.20;46.70
7666;DHT22;3875;46.562;4.898;2022-08-21T16:41:39;30.10;46.70
7666;DHT22;3875;46.562;4.898;2022-08-21T16:44:06;29.90;46.60
7666;DHT22;3875;46.562;4.898;2022-08-21T16:46:37;29.70;47.50
7666;DHT22;3875;46.562;4.898;2022-08-21T16:49:04;29.70;47.80
7666;DHT22;3875;46.562;4.898;2022-08-21T16:51:30;29.80;48.30
7666;DHT22;3875;46.562;4.898;2022-08-21T16:53:59;29.90;48.00
7666;DHT22;3875;46.562;4.898;2022-08-21T16:56:25;30.40;47.90
7666;DHT22;3875;46.562;4.898;2022-08-21T16:58:53;31.40;46.40
7666;DHT22;3875;46.562;4.898;2022-08-21T17:01:22;32.10;46.30
7666;DHT22;3875;46.562;4.898;2022-08-21T17:03:49;33.50;44.80
7666;DHT22;3875;46.562;4.898;2022-08-21T17:06:17;34.80;43.40
7666;DHT22;3875;46.562;4.898;2022-08-21T17:08:43;35.00;43.00
7666;DHT22;3875;46.562;4.898;2022-08-21T17:11:29;34.60;43.40
7666;DHT22;3875;46.562;4.898;2022-08-21T17:13:57;33.50;44.10
7666;DHT22;3875;46.562;4.898;2022-08-21T17:16:24;32.50;44.80